createdAt,value
2023-03-23T16:00:16.455Z,2.47
2023-03-23T16:02:43.351Z,2.45
2023-03-23T16:05:12.842Z,2.30
2023-03-23T16:07:39.497Z,2.70
2023-03-23T16:10:07.533Z,2.47
2023-03-23T16:12:33.853Z,2.20
2023-03-23T16:15:00.170Z,1.85
2023-03-23T16:17:26.553Z,2.22
2023-03-23T16:19:52.997Z,2.20
2023-03-23T16:22:19.312Z,2.92
2023-03-23T16:24:45.684Z,2.28
2023-03-23T16:27:12.749Z,2.22
2023-03-23T16:29:59.891Z,1.92
2023-03-23T16:32:25.455Z,2.05
2023-03-23T16:34:51.811Z,2.60
2023-03-23T16:37:18.299Z,2.20
2023-03-23T16:39:44.584Z,2.67
2023-03-23T16:42:11.147Z,2.30
2023-03-23T16:44:37.508Z,2.88
2023-03-23T16:47:03.865Z,2.20
2023-03-23T16:49:30.170Z,2.28
2023-03-23T16:51:56.501Z,2.03
2023-03-23T16:54:22.827Z,2.60
2023-03-23T16:56:49.244Z,2.55
2023-03-23T16:59:15.660Z,2.22
2023-03-23T17:01:42.013Z,2.42
2023-03-23T17:04:08.434Z,2.38
2023-03-23T17:06:34.756Z,2.25
2023-03-23T17:09:01.061Z,2.67
2023-03-23T17:11:27.345Z,2.30
2023-03-23T17:13:53.655Z,2.55
2023-03-23T17:16:20.098Z,2.65
2023-03-23T17:18:47.551Z,2.53
2023-03-23T17:21:13.981Z,2.63
2023-03-23T17:23:40.651Z,2.38
2023-03-23T17:26:07.188Z,2.60
2023-03-23T17:28:33.580Z,2.80
2023-03-23T17:30:59.947Z,3.17
2023-03-23T17:33:26.305Z,2.92
2023-03-23T17:35:52.745Z,4.00
2023-03-23T17:38:19.659Z,2.60
2023-03-23T17:40:46.005Z,2.50
2023-03-23T17:43:13.032Z,3.45
2023-03-23T17:45:41.416Z,3.72
2023-03-23T17:48:08.403Z,2.80
2023-03-23T17:50:35.910Z,3.53
2023-03-23T17:53:02.322Z,2.75
2023-03-23T17:55:28.722Z,2.65
2023-03-23T17:57:55.098Z,2.60
2023-03-23T18:00:21.820Z,3.28
2023-03-23T18:02:48.208Z,2.60
2023-03-23T18:05:14.670Z,2.80
2023-03-23T18:07:41.208Z,2.38
2023-03-23T18:10:08.160Z,2.70
2023-03-23T18:12:34.568Z,3.10
2023-03-23T18:15:00.830Z,2.13
2023-03-23T18:17:27.153Z,3.17
2023-03-23T18:19:54.100Z,2.17
2023-03-23T18:22:20.517Z,2.67
2023-03-23T18:24:46.974Z,2.78
2023-03-23T18:27:14.560Z,3.28
2023-03-23T18:29:41.155Z,3.65
2023-03-23T18:32:07.638Z,2.80
2023-03-23T18:34:34.646Z,2.95
2023-03-23T18:37:01.040Z,3.58
2023-03-23T18:39:27.383Z,2.80
2023-03-23T18:41:53.630Z,3.17
2023-03-23T18:44:20.142Z,3.53
2023-03-23T18:46:46.463Z,2.72
2023-03-23T18:49:12.799Z,3.10
2023-03-23T18:51:39.106Z,3.00
2023-03-23T18:54:05.528Z,3.33
2023-03-23T18:56:31.898Z,3.08
2023-03-23T18:58:58.289Z,2.97
2023-03-23T19:01:24.697Z,3.17
2023-03-23T19:03:51.183Z,3.20
2023-03-23T19:06:25.508Z,3.15
2023-03-23T19:08:54.200Z,3.30
2023-03-23T19:11:22.593Z,2.70
2023-03-23T19:13:58.765Z,3.47
2023-03-23T19:16:28.929Z,3.00
2023-03-23T19:18:55.255Z,3.10
2023-03-23T19:21:25.774Z,3.20
2023-03-23T19:23:53.783Z,3.22
2023-03-23T19:26:28.650Z,3.60
2023-03-23T19:29:24.484Z,3.47
2023-03-23T19:31:43.957Z,4.28
2023-03-23T19:34:11.935Z,3.25
2023-03-23T19:36:39.421Z,3.85
2023-03-23T19:39:08.023Z,3.60
2023-03-23T19:41:34.850Z,3.83
2023-03-23T19:44:01.287Z,3.63
2023-03-23T19:46:30.221Z,3.65
2023-03-23T19:48:57.995Z,3.15
2023-03-23T19:51:24.348Z,3.00
2023-03-23T19:53:50.866Z,3.30
2023-03-23T19:56:19.659Z,3.40
2023-03-23T19:58:47.757Z,3.17
2023-03-23T20:01:15.219Z,2.83
2023-03-23T20:03:41.842Z,3.58
2023-03-23T20:06:12.129Z,3.88
2023-03-23T20:08:45.461Z,3.40
2023-03-23T20:11:14.651Z,3.42
2023-03-23T20:13:41.222Z,3.40
2023-03-23T20:16:11.038Z,3.78
2023-03-23T20:18:38.096Z,3.67
2023-03-23T20:21:07.731Z,3.28
2023-03-23T20:23:35.646Z,3.63
2023-03-23T20:26:07.369Z,3.47
2023-03-23T20:28:33.945Z,3.60
2023-03-23T20:31:19.477Z,3.53
2023-03-23T20:34:00.708Z,3.58
2023-03-23T20:36:33.434Z,4.15
2023-03-23T20:39:00.134Z,4.10
2023-03-23T20:41:26.731Z,3.58
2023-03-23T20:43:53.192Z,3.88
2023-03-23T20:46:19.639Z,4.18
2023-03-23T20:48:45.949Z,3.58
2023-03-23T20:51:12.723Z,3.70
2023-03-23T20:53:39.078Z,3.40
2023-03-23T20:56:06.971Z,3.42
2023-03-23T20:58:34.674Z,3.45
2023-03-23T21:01:03.196Z,3.65
2023-03-23T21:03:38.594Z,3.90
2023-03-23T21:06:06.800Z,4.07
2023-03-23T21:08:39.222Z,3.85
2023-03-23T21:11:09.879Z,3.88
2023-03-23T21:13:36.621Z,4.40
2023-03-23T21:16:03.553Z,3.75
2023-03-23T21:18:30.635Z,3.42
2023-03-23T21:20:57.194Z,4.13
2023-03-23T21:23:24.244Z,4.28
2023-03-23T21:25:50.733Z,4.65
2023-03-23T21:28:17.014Z,4.60
2023-03-23T21:30:43.518Z,3.53
2023-03-23T21:33:20.597Z,3.83
2023-03-23T21:36:07.023Z,4.00
2023-03-23T21:38:35.079Z,3.47
2023-03-23T21:41:23.390Z,4.07
2023-03-23T21:43:51.938Z,4.07
2023-03-23T21:46:32.597Z,3.22
2023-03-23T21:49:10.908Z,4.15
2023-03-23T21:51:46.499Z,3.35
2023-03-23T21:54:13.135Z,3.38
2023-03-23T21:56:47.797Z,3.27
2023-03-23T21:59:20.356Z,3.17
2023-03-23T22:02:11.649Z,4.10
2023-03-23T22:04:38.428Z,4.13
2023-03-23T22:07:04.720Z,3.38
2023-03-23T22:09:31.448Z,4.22
2023-03-23T22:11:57.860Z,3.88
2023-03-23T22:14:24.368Z,4.78
2023-03-23T22:16:51.882Z,3.78
2023-03-23T22:19:19.066Z,4.40
2023-03-23T22:21:45.596Z,4.57
2023-03-23T22:24:12.302Z,3.88
2023-03-23T22:26:39.278Z,3.38
2023-03-23T22:29:06.680Z,3.55
2023-03-23T22:31:34.547Z,3.55
2023-03-23T22:34:01.911Z,3.28
2023-03-23T22:36:30.065Z,3.28
2023-03-23T22:38:56.571Z,3.60
2023-03-23T22:41:32.706Z,3.53
2023-03-23T22:43:59.495Z,3.78
2023-03-23T22:46:26.233Z,3.80
2023-03-23T22:48:53.523Z,3.75
2023-03-23T22:51:20.592Z,3.17
2023-03-23T22:53:47.432Z,3.47
2023-03-23T22:56:14.956Z,3.95
2023-03-23T22:58:41.380Z,3.45
2023-03-23T23:01:13.346Z,3.33
2023-03-23T23:03:50.355Z,3.88
2023-03-23T23:06:18.799Z,3.65
2023-03-23T23:08:46.454Z,3.67
2023-03-23T23:11:16.070Z,3.10
2023-03-23T23:13:43.529Z,3.13
2023-03-23T23:16:12.693Z,3.05
2023-03-23T23:18:39.562Z,3.63
2023-03-23T23:21:13.353Z,3.35
2023-03-23T23:23:40.156Z,3.42
2023-03-23T23:26:07.339Z,2.80
2023-03-23T23:28:34.928Z,3.42
2023-03-23T23:31:01.891Z,3.15
2023-03-23T23:33:28.339Z,3.55
2023-03-23T23:35:55.197Z,4.65
2023-03-23T23:38:21.710Z,3.38
2023-03-23T23:40:48.386Z,2.60
2023-03-23T23:43:16.682Z,3.15
2023-03-23T23:45:44.566Z,3.60
2023-03-23T23:48:11.294Z,4.00
2023-03-23T23:50:37.742Z,3.60
2023-03-23T23:53:04.405Z,3.40
2023-03-23T23:55:30.895Z,3.63
2023-03-23T23:57:57.350Z,3.70
